Dati Storici

Data ora Umidita' aria (%) Temperatura aria (°C) Rad globale (W/m²) Gonioanemometro (°) Tacoanemometro (m/s) Pioggia (mm)
06-06-2020 17:30 84.9 % 21.43 -73.388 0.945 0 0
06-06-2020 17:20 83.9 % 21.207 -70.656 2.049 0 0
06-06-2020 17:10 82.2 % 21.113 -72.953 0.809 0 0
06-06-2020 17:00 79.4 % 21.66 -75.991 1.726 0 0
06-06-2020 16:50 75.5 % 22.439 -73.42 0.565 0 0
06-06-2020 16:40 71.6 % 23.238 -76.782 1.253 0 0
06-06-2020 16:30 70.9 % 23.908 -75.449 0.919 0 0
06-06-2020 16:20 73.1 % 23.585 -71.287 1.66 0 0
06-06-2020 16:10 74.6 % 22.999 -76.107 2.573 0 0
06-06-2020 16:00 75.5 % 22.712 -74.428 2.277 0 0
06-06-2020 15:50 76.1 % 22.69 -73.153 1.561 0 0
06-06-2020 15:40 77.9 % 22.339 -79.764 0.34 0 0
06-06-2020 15:30 75.8 % 22.722 -73.996 0.978 0 0
06-06-2020 15:20 77.6 % 22.558 -80.23 1.258 0 0
06-06-2020 15:10 75.5 % 22.089 -73.622 1.473 0 0
06-06-2020 15:00 73.3 % 22.198 -76.453 3.642 0 0
06-06-2020 14:50 71.6 % 22.58 -72.831 1.933 0 0
06-06-2020 14:40 72.5 % 22.211 -73.287 2.466 0 0
06-06-2020 14:30 71 % 23.142 -76.478 1.981 0 0
06-06-2020 14:20 71.2 % 22.97 -73.166 2.107 0 0

I dati sono presentati in modo automatico a scopo informativo. In seguito a verifica i dati possono subire modifiche o essere invalidati e non riportati negli archivi definitivi.